createdAt,value
2019-04-06T00:02:34.066Z,61.85
2019-04-06T00:05:03.130Z,57.33
2019-04-06T00:07:32.079Z,63.92
2019-04-06T00:10:01.051Z,63.83
2019-04-06T00:12:29.716Z,60.08
2019-04-06T00:14:58.381Z,55.00
2019-04-06T00:17:27.066Z,60.70
2019-04-06T00:19:55.849Z,59.63
2019-04-06T00:22:26.454Z,61.60
2019-04-06T00:24:55.218Z,53.83
2019-04-06T00:27:24.710Z,57.60
2019-04-06T00:29:54.142Z,59.50
2019-04-06T00:32:28.060Z,55.58
2019-04-06T00:34:57.925Z,64.25
2019-04-06T00:37:27.804Z,58.70
2019-04-06T00:39:57.007Z,61.50
2019-04-06T00:42:26.305Z,64.15
2019-04-06T00:44:55.327Z,57.40
2019-04-06T00:47:24.772Z,59.10
2019-04-06T00:49:54.154Z,61.75
2019-04-06T00:52:23.219Z,63.70
2019-04-06T00:54:52.298Z,69.30
2019-04-06T00:57:23.695Z,60.23
2019-04-06T00:59:52.802Z,64.17
2019-04-06T01:02:21.862Z,63.35
2019-04-06T01:04:50.946Z,63.83
2019-04-06T01:07:19.711Z,59.58
2019-04-06T01:09:48.478Z,68.30
2019-04-06T01:12:17.492Z,64.30
2019-04-06T01:14:46.470Z,60.90
2019-04-06T01:17:15.432Z,55.17
2019-04-06T01:19:44.545Z,61.48
2019-04-06T01:22:13.229Z,57.15
2019-04-06T01:24:41.888Z,64.20
2019-04-06T01:27:10.619Z,62.65
2019-04-06T01:29:39.338Z,61.13
2019-04-06T01:32:08.001Z,65.50
2019-04-06T01:34:36.663Z,61.33
2019-04-06T01:37:05.432Z,68.28
2019-04-06T01:39:34.108Z,70.50
2019-04-06T01:42:02.777Z,63.10
2019-04-06T01:44:31.492Z,67.27
2019-04-06T01:47:00.145Z,62.45
2019-04-06T01:49:28.840Z,67.97
2019-04-06T01:51:57.530Z,61.23
2019-04-06T01:54:26.189Z,71.65
2019-04-06T01:56:54.850Z,68.45
2019-04-06T01:59:23.540Z,68.15
2019-04-06T02:01:58.956Z,73.83
2019-04-06T02:04:27.652Z,72.55
2019-04-06T02:06:56.303Z,67.32
2019-04-06T02:09:24.978Z,66.42
2019-04-06T02:11:53.661Z,74.55
2019-04-06T02:14:22.318Z,72.87
2019-04-06T02:16:51.090Z,74.53
2019-04-06T02:19:19.902Z,67.92
2019-04-06T02:21:48.569Z,78.17
2019-04-06T02:24:17.241Z,78.07
2019-04-06T02:26:45.912Z,73.05
2019-04-06T02:29:14.610Z,82.85
2019-04-06T02:32:10.602Z,76.85
2019-04-06T02:35:06.339Z,81.30
2019-04-06T02:37:57.093Z,80.07
2019-04-06T02:40:39.899Z,77.47
2019-04-06T02:43:17.897Z,81.25
2019-04-06T02:45:46.580Z,80.62
2019-04-06T02:48:15.247Z,77.85
2019-04-06T02:50:43.913Z,81.32
2019-04-06T02:53:12.583Z,70.95
2019-04-06T02:55:41.244Z,74.22
2019-04-06T02:58:10.171Z,69.62
2019-04-06T03:00:38.913Z,74.72
2019-04-06T03:03:07.571Z,74.40
2019-04-06T03:05:36.332Z,71.02
2019-04-06T03:08:05.001Z,71.33
2019-04-06T03:10:33.740Z,70.60
2019-04-06T03:13:02.835Z,65.60
2019-04-06T03:15:32.417Z,61.18
2019-04-06T03:18:01.093Z,69.50
2019-04-06T03:20:29.819Z,74.58
2019-04-06T03:22:59.178Z,75.83
2019-04-06T03:25:28.289Z,76.40
2019-04-06T03:27:58.050Z,76.40
2019-04-06T03:30:27.493Z,76.30
2019-04-06T03:32:57.989Z,75.50
2019-04-06T03:35:26.700Z,82.80
2019-04-06T03:37:56.434Z,82.50
2019-04-06T03:40:25.740Z,84.58
2019-04-06T03:42:55.039Z,87.08
2019-04-06T03:45:23.794Z,83.97
2019-04-06T03:47:52.400Z,81.80
2019-04-06T03:50:21.223Z,84.35
2019-04-06T03:52:49.841Z,78.95
2019-04-06T03:55:18.497Z,83.87
2019-04-06T03:57:47.166Z,79.62
2019-04-06T04:00:16.318Z,78.28
2019-04-06T04:02:44.950Z,84.80
2019-04-06T04:05:13.674Z,81.02
2019-04-06T04:07:42.638Z,82.17
2019-04-06T04:10:17.446Z,88.62
2019-04-06T04:12:46.127Z,83.70
2019-04-06T04:15:14.960Z,87.55
2019-04-06T04:17:43.771Z,86.10
2019-04-06T04:20:12.535Z,87.65
2019-04-06T04:22:41.203Z,84.97
2019-04-06T04:25:10.255Z,84.50
2019-04-06T04:27:41.394Z,85.75
2019-04-06T04:30:10.148Z,86.45
2019-04-06T04:32:38.835Z,85.45
2019-04-06T04:35:07.643Z,82.78
2019-04-06T04:37:37.454Z,87.53
2019-04-06T04:40:06.321Z,85.97
2019-04-06T04:42:35.017Z,87.97
2019-04-06T04:45:03.774Z,88.60
2019-04-06T04:47:32.466Z,90.12
2019-04-06T04:50:01.136Z,87.60
2019-04-06T04:52:30.495Z,82.88
2019-04-06T04:54:59.489Z,82.72
2019-04-06T04:57:39.685Z,78.92
2019-04-06T04:59:59.685Z,84.22
2019-04-06T05:02:28.374Z,76.97
2019-04-06T05:04:57.377Z,79.53
2019-04-06T05:07:26.511Z,70.78
2019-04-06T05:09:55.545Z,77.78
2019-04-06T05:12:24.598Z,79.90
2019-04-06T05:15:02.427Z,74.30
2019-04-06T05:17:31.950Z,77.03
2019-04-06T05:20:01.464Z,74.82
2019-04-06T05:22:32.274Z,72.32
2019-04-06T05:25:01.505Z,75.85
2019-04-06T05:27:30.515Z,69.80
2019-04-06T05:29:59.151Z,66.33
2019-04-06T05:32:28.556Z,72.35
2019-04-06T05:34:58.442Z,69.55
2019-04-06T05:37:27.801Z,71.67
2019-04-06T05:39:57.226Z,72.78
2019-04-06T05:42:26.233Z,62.35
2019-04-06T05:44:55.013Z,61.77
2019-04-06T05:47:23.911Z,62.45
2019-04-06T05:49:53.013Z,60.88
2019-04-06T05:52:22.615Z,57.80
2019-04-06T05:54:51.812Z,61.33
2019-04-06T05:57:20.793Z,60.15
2019-04-06T05:59:49.510Z,60.40
2019-04-06T06:02:21.308Z,63.08
2019-04-06T06:04:50.706Z,53.65
2019-04-06T06:07:19.727Z,64.22
2019-04-06T06:09:48.722Z,60.58
2019-04-06T06:12:18.061Z,59.88
2019-04-06T06:14:47.767Z,58.98
2019-04-06T06:17:16.725Z,58.73
2019-04-06T06:19:45.459Z,62.05
2019-04-06T06:22:14.506Z,55.00
2019-04-06T06:24:43.940Z,57.17
2019-04-06T06:27:13.524Z,58.52
2019-04-06T06:29:42.239Z,61.53
2019-04-06T06:32:10.932Z,59.45
2019-04-06T06:34:39.959Z,58.00
2019-04-06T06:37:08.637Z,57.48
2019-04-06T06:39:37.370Z,55.17
2019-04-06T06:42:06.191Z,49.80
2019-04-06T06:44:35.580Z,55.00
2019-04-06T06:47:04.347Z,55.00
2019-04-06T06:49:33.408Z,53.10
2019-04-06T06:52:02.105Z,49.25
2019-04-06T06:54:30.922Z,52.00
2019-04-06T06:56:59.520Z,55.58
2019-04-06T06:59:30.309Z,53.80
2019-04-06T07:01:59.207Z,52.15
2019-04-06T07:04:27.944Z,52.67
2019-04-06T07:06:56.953Z,55.78
2019-04-06T07:09:25.645Z,54.98
2019-04-06T07:11:54.871Z,50.43
2019-04-06T07:14:23.979Z,54.53
2019-04-06T07:16:52.665Z,50.25
2019-04-06T07:19:22.060Z,53.65
2019-04-06T07:21:51.598Z,51.58
2019-04-06T07:24:21.539Z,53.25
2019-04-06T07:26:51.003Z,49.73
2019-04-06T07:29:20.047Z,54.27
2019-04-06T07:31:49.113Z,53.02
2019-04-06T07:34:17.797Z,53.63
2019-04-06T07:36:46.760Z,50.78
2019-04-06T07:39:16.197Z,53.30
2019-04-06T07:41:45.586Z,52.25
2019-04-06T07:44:14.447Z,51.30
2019-04-06T07:46:43.640Z,46.48
2019-04-06T07:49:12.799Z,52.62
2019-04-06T07:51:41.759Z,47.40
2019-04-06T07:54:37.703Z,49.73
2019-04-06T07:57:06.391Z,48.80
2019-04-06T07:59:35.080Z,49.90
2019-04-06T08:02:04.090Z,46.23
2019-04-06T08:04:34.727Z,47.40
2019-04-06T08:07:03.571Z,48.10
2019-04-06T08:09:32.262Z,47.27
2019-04-06T08:12:00.932Z,47.00
2019-04-06T08:14:29.960Z,47.33
2019-04-06T08:16:59.291Z,46.30
2019-04-06T08:19:28.028Z,48.35
2019-04-06T08:21:56.838Z,46.58
2019-04-06T08:24:25.471Z,47.67
2019-04-06T08:26:54.140Z,46.75
2019-04-06T08:29:22.804Z,47.65
2019-04-06T08:31:52.777Z,46.10
2019-04-06T08:34:21.540Z,45.50
2019-04-06T08:36:50.216Z,44.77
2019-04-06T08:39:19.058Z,45.63
2019-04-06T08:41:47.736Z,45.85
2019-04-06T08:44:16.410Z,43.38
2019-04-06T08:46:46.007Z,44.63
2019-04-06T08:49:15.031Z,44.58
2019-04-06T08:51:44.099Z,45.67
2019-04-06T08:54:14.129Z,47.23
2019-04-06T08:56:42.783Z,43.80
2019-04-06T08:59:13.501Z,44.98
2019-04-06T09:01:42.733Z,46.63
2019-04-06T09:04:11.839Z,46.20
2019-04-06T09:06:40.879Z,48.15
2019-04-06T09:09:10.214Z,44.80
2019-04-06T09:11:38.903Z,43.85
2019-04-06T09:14:08.295Z,43.15
2019-04-06T09:16:36.955Z,44.03
2019-04-06T09:19:06.727Z,45.90
2019-04-06T09:21:35.431Z,43.48
2019-04-06T09:24:04.180Z,43.63
2019-04-06T09:26:33.171Z,45.78
2019-04-06T09:29:01.859Z,46.23
2019-04-06T09:31:30.576Z,47.38
2019-04-06T09:33:59.588Z,41.10
2019-04-06T09:36:28.564Z,44.38
2019-04-06T09:38:57.476Z,42.48
2019-04-06T09:41:26.647Z,44.00
2019-04-06T09:43:55.417Z,44.80
2019-04-06T09:46:33.157Z,47.80
2019-04-06T09:49:08.215Z,43.25
2019-04-06T09:51:50.728Z,40.38
2019-04-06T09:54:30.755Z,43.95
2019-04-06T09:57:10.418Z,44.03
2019-04-06T09:59:57.238Z,43.58
2019-04-06T10:02:34.726Z,41.88
2019-04-06T10:05:17.311Z,43.92
2019-04-06T10:08:12.860Z,43.13
2019-04-06T10:10:59.481Z,40.12
2019-04-06T10:13:46.519Z,45.00
2019-04-06T10:16:33.930Z,42.85
2019-04-06T10:19:20.956Z,42.80
2019-04-06T10:21:59.754Z,41.77
2019-04-06T10:24:44.998Z,43.13
2019-04-06T10:27:22.961Z,40.58
2019-04-06T10:30:07.889Z,35.88
2019-04-06T10:32:54.223Z,34.05
2019-04-06T10:35:41.687Z,39.03
2019-04-06T10:38:18.833Z,36.60
2019-04-06T10:41:00.694Z,37.63
2019-04-06T10:43:42.469Z,32.83
2019-04-06T10:46:19.198Z,34.45
2019-04-06T10:49:17.411Z,33.02
2019-04-06T10:52:09.913Z,35.48
2019-04-06T10:55:03.857Z,36.38
2019-04-06T10:57:51.658Z,34.75
2019-04-06T11:00:30.228Z,35.25
2019-04-06T11:03:04.568Z,32.35
2019-04-06T11:05:43.075Z,31.20
2019-04-06T11:08:22.212Z,32.00
2019-04-06T11:11:11.360Z,32.53
2019-04-06T11:14:02.169Z,33.25
2019-04-06T11:16:51.096Z,32.05
2019-04-06T11:19:32.629Z,30.37
2019-04-06T11:22:11.897Z,31.23
2019-04-06T11:24:54.744Z,26.23
2019-04-06T11:30:20.391Z,25.52
2019-04-06T11:33:07.500Z,26.52
2019-04-06T11:35:54.942Z,27.45
2019-04-06T11:38:43.610Z,26.40
2019-04-06T11:41:31.419Z,25.82
2019-04-06T11:44:16.612Z,25.68
2019-04-06T11:47:02.941Z,18.32
2019-04-06T11:49:49.907Z,20.27
2019-04-06T11:52:28.340Z,20.00
2019-04-06T11:55:04.467Z,18.92
2019-04-06T11:58:04.598Z,20.52
2019-04-06T12:01:10.818Z,18.17
2019-04-06T12:03:57.987Z,18.10
2019-04-06T12:07:01.791Z,19.12
2019-04-06T12:09:42.667Z,17.25
2019-04-06T12:12:30.497Z,17.40
2019-04-06T12:15:17.258Z,16.60
2019-04-06T12:18:20.410Z,17.25
2019-04-06T12:21:01.328Z,16.10
2019-04-06T12:23:52.669Z,16.37
2019-04-06T12:26:29.658Z,13.80
2019-04-06T12:29:08.544Z,13.43
2019-04-06T12:31:56.915Z,15.23
2019-04-06T12:34:34.797Z,14.20
2019-04-06T12:37:15.584Z,15.63
2019-04-06T12:40:08.116Z,15.85
2019-04-06T12:42:54.959Z,15.43
2019-04-06T12:45:41.594Z,16.82
2019-04-06T12:48:27.952Z,13.98
2019-04-06T12:51:08.703Z,13.45
2019-04-06T12:53:59.508Z,15.28
2019-04-06T12:56:39.942Z,14.53
2019-04-06T12:59:40.472Z,14.78
2019-04-06T13:02:27.549Z,12.90
2019-04-06T13:05:15.584Z,13.15
2019-04-06T13:08:06.108Z,13.18
2019-04-06T13:11:08.933Z,12.53
2019-04-06T13:14:03.138Z,10.82
2019-04-06T13:16:50.934Z,12.35
2019-04-06T13:19:24.674Z,11.88
2019-04-06T13:22:00.230Z,12.05
2019-04-06T13:24:42.037Z,11.60
2019-04-06T13:27:24.868Z,10.72
2019-04-06T13:32:48.866Z,10.55
2019-04-06T13:38:21.177Z,11.28
2019-04-06T13:41:16.344Z,10.45
2019-04-06T13:44:22.036Z,12.47
2019-04-06T13:50:24.284Z,11.20
2019-04-06T13:53:21.374Z,11.25
2019-04-06T13:56:06.581Z,11.45
2019-04-06T13:58:54.172Z,11.33
2019-04-06T14:01:38.833Z,10.63
2019-04-06T14:04:15.485Z,10.78
2019-04-06T14:07:02.800Z,10.30
2019-04-06T14:09:50.192Z,11.30
2019-04-06T14:12:37.038Z,11.33
2019-04-06T14:15:41.104Z,11.25
2019-04-06T14:18:35.408Z,11.85
2019-04-06T14:21:16.806Z,10.20
2019-04-06T14:24:07.612Z,9.75
2019-04-06T14:26:51.460Z,11.50
2019-04-06T14:29:31.841Z,11.15
2019-04-06T14:32:18.858Z,11.50
2019-04-06T14:35:01.838Z,15.18
2019-04-06T14:37:48.506Z,16.60
2019-04-06T14:40:29.163Z,14.95
2019-04-06T14:43:15.931Z,15.90
2019-04-06T14:45:51.231Z,18.37
2019-04-06T14:48:29.440Z,18.98
2019-04-06T14:51:12.212Z,19.85
2019-04-06T14:56:32.337Z,24.32
2019-04-06T14:59:09.068Z,25.17
2019-04-06T15:01:58.674Z,23.65
2019-04-06T15:04:42.318Z,28.00
2019-04-06T15:07:42.094Z,24.70
2019-04-06T15:10:37.387Z,25.65
2019-04-06T15:13:28.767Z,26.70
2019-04-06T15:16:34.663Z,25.35
2019-04-06T15:19:11.948Z,25.85
2019-04-06T15:22:00.798Z,28.20
2019-04-06T15:24:44.099Z,30.00
2019-04-06T15:27:41.913Z,30.72
2019-04-06T15:30:36.410Z,32.15
2019-04-06T15:33:16.570Z,34.60
2019-04-06T15:36:01.854Z,36.83
2019-04-06T15:39:01.411Z,37.65
2019-04-06T15:41:56.292Z,40.10
2019-04-06T15:44:37.311Z,40.25
2019-04-06T15:50:09.719Z,40.73
2019-04-06T15:52:50.703Z,39.95
2019-04-06T15:55:38.428Z,40.88
2019-04-06T15:58:14.683Z,39.80
2019-04-06T16:01:04.349Z,40.23
2019-04-06T16:03:48.615Z,38.50
2019-04-06T16:06:25.828Z,35.73
2019-04-06T16:09:12.418Z,34.43
2019-04-06T16:11:54.614Z,36.53
2019-04-06T16:14:33.847Z,33.83
2019-04-06T16:17:27.082Z,35.10
2019-04-06T16:23:00.818Z,38.28
2019-04-06T16:25:51.255Z,35.25
2019-04-06T16:28:30.485Z,32.78
2019-04-06T16:31:09.390Z,33.98
2019-04-06T16:34:09.485Z,34.43
2019-04-06T16:36:49.162Z,32.55
2019-04-06T16:39:39.928Z,32.63
2019-04-06T16:42:30.694Z,32.58
2019-04-06T16:45:17.339Z,32.00
2019-04-06T16:48:06.415Z,31.55
2019-04-06T16:50:43.433Z,29.92
2019-04-06T16:53:36.751Z,28.92
2019-04-06T16:59:08.062Z,28.30
2019-04-06T17:01:59.503Z,28.75
2019-04-06T17:04:53.215Z,31.23
2019-04-06T17:07:31.243Z,30.57
2019-04-06T17:10:10.703Z,28.92
2019-04-06T17:13:10.854Z,30.17
2019-04-06T17:16:07.569Z,29.30
2019-04-06T17:18:51.773Z,28.75
2019-04-06T17:21:52.203Z,32.25
2019-04-06T17:24:36.252Z,29.87
2019-04-06T17:27:20.073Z,31.40
2019-04-06T17:29:58.865Z,30.85
2019-04-06T17:32:35.928Z,30.68
2019-04-06T17:35:13.017Z,32.20
2019-04-06T17:37:51.584Z,30.55
2019-04-06T17:40:32.454Z,31.20
2019-04-06T17:43:09.578Z,31.50
2019-04-06T17:45:54.287Z,30.80
2019-04-06T17:48:28.727Z,32.53
2019-04-06T17:51:31.799Z,34.20
2019-04-06T17:54:16.312Z,34.63
2019-04-06T17:56:58.046Z,35.65
2019-04-06T17:59:52.873Z,35.95
2019-04-06T18:02:49.649Z,33.65
2019-04-06T18:05:49.285Z,35.95
2019-04-06T18:08:34.980Z,35.75
2019-04-06T18:11:26.275Z,35.20
2019-04-06T18:13:56.336Z,36.93
2019-04-06T18:16:30.048Z,36.48
2019-04-06T18:18:58.976Z,36.25
2019-04-06T18:21:28.109Z,36.20
2019-04-06T18:23:57.595Z,35.52
2019-04-06T18:26:27.089Z,37.53
2019-04-06T18:28:56.404Z,36.23
2019-04-06T18:31:33.889Z,36.88
2019-04-06T18:34:03.729Z,37.17
2019-04-06T18:36:57.841Z,36.40
2019-04-06T18:39:27.804Z,38.08
2019-04-06T18:41:57.281Z,38.10
2019-04-06T18:44:29.012Z,38.92
2019-04-06T18:46:58.426Z,39.18
2019-04-06T18:49:28.327Z,40.83
2019-04-06T18:51:58.354Z,41.77
2019-04-06T18:54:27.071Z,38.80
2019-04-06T18:56:56.024Z,39.80
2019-04-06T18:59:24.863Z,40.03
2019-04-06T19:01:54.078Z,40.28
2019-04-06T19:04:22.818Z,38.65
2019-04-06T19:06:51.484Z,37.90
2019-04-06T19:09:23.796Z,39.27
2019-04-06T19:11:55.107Z,38.65
2019-04-06T19:14:21.435Z,39.03
2019-04-06T19:16:50.308Z,39.08
2019-04-06T19:19:19.353Z,38.30
2019-04-06T19:21:48.039Z,38.50
2019-04-06T19:24:16.697Z,36.23
2019-04-06T19:26:45.372Z,42.48
2019-04-06T19:29:14.064Z,41.65
2019-04-06T19:31:43.264Z,39.65
2019-04-06T19:34:12.468Z,40.90
2019-04-06T19:36:41.310Z,42.78
2019-04-06T19:39:13.714Z,40.92
2019-04-06T19:41:42.825Z,41.17
2019-04-06T19:44:11.973Z,42.95
2019-04-06T19:46:40.731Z,40.75
2019-04-06T19:49:09.384Z,39.45
2019-04-06T19:51:38.529Z,40.00
2019-04-06T19:54:07.295Z,39.67
2019-04-06T19:56:36.464Z,37.63
2019-04-06T19:59:05.254Z,38.20
2019-04-06T20:01:34.676Z,39.45
2019-04-06T20:04:03.610Z,40.10
2019-04-06T20:06:32.295Z,38.15
2019-04-06T20:09:00.959Z,40.78
2019-04-06T20:11:29.901Z,38.10
2019-04-06T20:13:58.851Z,38.50
2019-04-06T20:16:27.603Z,39.08
2019-04-06T20:18:56.525Z,39.67
2019-04-06T20:21:26.337Z,38.95
2019-04-06T20:23:55.046Z,39.15
2019-04-06T20:26:23.935Z,39.83
2019-04-06T20:28:52.630Z,42.38
2019-04-06T20:31:21.385Z,42.67
2019-04-06T20:33:51.856Z,41.63
2019-04-06T20:36:20.483Z,40.92
2019-04-06T20:38:49.222Z,42.38
2019-04-06T20:41:17.968Z,43.42
2019-04-06T20:43:46.619Z,42.58
2019-04-06T20:46:15.339Z,41.40
2019-04-06T20:48:44.002Z,42.62
2019-04-06T20:51:12.655Z,43.17
2019-04-06T20:53:46.302Z,44.50
2019-04-06T20:56:15.071Z,44.75
2019-04-06T20:58:44.073Z,41.30
2019-04-06T21:01:13.027Z,44.75
2019-04-06T21:03:45.334Z,46.30
2019-04-06T21:06:14.024Z,43.90
2019-04-06T21:08:42.718Z,44.65
2019-04-06T21:11:11.709Z,42.70
2019-04-06T21:13:40.800Z,44.88
2019-04-06T21:16:09.648Z,45.30
2019-04-06T21:18:38.962Z,42.40
2019-04-06T21:21:07.613Z,50.58
2019-04-06T21:23:36.641Z,55.30
2019-04-06T21:26:05.396Z,60.50
2019-04-06T21:28:34.067Z,55.15
2019-04-06T21:31:02.729Z,50.28
2019-04-06T21:33:31.741Z,50.80
2019-04-06T21:36:00.562Z,52.60
2019-04-06T21:38:29.599Z,49.08
2019-04-06T21:40:58.361Z,48.35
2019-04-06T21:43:27.015Z,49.03
2019-04-06T21:45:55.670Z,49.93
2019-04-06T21:48:24.885Z,51.25
2019-04-06T21:50:53.685Z,51.25
2019-04-06T21:53:22.331Z,50.48
2019-04-06T21:56:00.932Z,52.05
2019-04-06T21:58:22.013Z,52.95
2019-04-06T22:00:53.704Z,51.28
2019-04-06T22:03:22.440Z,50.28
2019-04-06T22:05:51.177Z,47.70
2019-04-06T22:08:20.432Z,49.55
2019-04-06T22:10:49.220Z,45.70
2019-04-06T22:13:18.403Z,49.27
2019-04-06T22:15:47.347Z,53.85
2019-04-06T22:18:15.918Z,47.93
2019-04-06T22:20:44.588Z,49.42
2019-04-06T22:23:13.261Z,52.98
2019-04-06T22:25:41.934Z,51.68
2019-04-06T22:28:10.937Z,56.10
2019-04-06T22:30:40.661Z,54.48
2019-04-06T22:33:09.367Z,54.25
2019-04-06T22:35:38.398Z,55.58
2019-04-06T22:38:08.122Z,67.00
2019-04-06T22:40:40.602Z,57.38
2019-04-06T22:43:09.460Z,58.95
2019-04-06T22:45:38.113Z,56.68
2019-04-06T22:48:06.945Z,55.75
2019-04-06T22:50:36.013Z,53.23
2019-04-06T22:53:05.244Z,57.98
2019-04-06T22:55:34.584Z,57.62
2019-04-06T22:58:04.892Z,59.60
2019-04-06T23:00:36.268Z,53.38
2019-04-06T23:03:17.454Z,56.28
2019-04-06T23:05:49.137Z,49.45
2019-04-06T23:08:17.796Z,49.00
2019-04-06T23:10:46.631Z,53.73
2019-04-06T23:13:15.304Z,67.62
2019-04-06T23:15:44.029Z,64.82
2019-04-06T23:18:12.653Z,66.90
2019-04-06T23:20:41.483Z,67.12
2019-04-06T23:23:10.309Z,64.03
2019-04-06T23:25:38.958Z,65.92
2019-04-06T23:28:07.620Z,63.65
2019-04-06T23:30:36.308Z,57.05
2019-04-06T23:33:05.035Z,54.27
2019-04-06T23:35:33.693Z,59.08
2019-04-06T23:38:02.911Z,60.30
2019-04-06T23:40:31.635Z,58.23
2019-04-06T23:43:00.320Z,62.75
2019-04-06T23:45:29.007Z,62.00
2019-04-06T23:47:57.662Z,64.90
2019-04-06T23:50:26.322Z,62.62
2019-04-06T23:52:54.988Z,60.33
2019-04-06T23:55:23.665Z,60.65
2019-04-06T23:57:52.387Z,62.70
